Time;durP1;ratioP1;P1;durP2;ratioP2;P2;SDS_P1;SDS_P2;PMS_P1;PMS_P2;Temp;Humidity;BMP_temperature;BMP_pressure;BME280_temperature;BME280_humidity;BME280_pressure;Samples;Min_cycle;Max_cycle;Signal;HPM_P1;HPM_P2
2023/07/14 00:01:51;;;;;;;5.70;1.67;;;21.50;99.90;;;;;;4974917;28;20034;-75
2023/07/14 00:04:31;;;;;;;3.28;1.33;;;21.40;99.90;;;;;;4974613;28;20494;-77
2023/07/14 00:06:57;;;;;;;4.25;1.35;;;21.40;99.90;;;;;;4974391;28;20854;-77
2023/07/14 00:09:26;;;;;;;4.22;1.35;;;21.40;99.90;;;;;;4974188;28;20566;-77
2023/07/14 00:11:52;;;;;;;2.55;1.08;;;21.30;99.90;;;;;;4974755;28;20440;-77
2023/07/14 00:14:18;;;;;;;2.33;1.10;;;21.40;99.90;;;;;;4974142;28;20019;-76
2023/07/14 00:16:44;;;;;;;5.68;1.02;;;21.50;99.90;;;;;;4974524;28;20081;-77
2023/07/14 00:19:15;;;;;;;5.47;1.15;;;21.50;99.90;;;;;;4974196;28;20102;-78
2023/07/14 00:21:43;;;;;;;2.15;1.20;;;21.60;99.90;;;;;;4974826;28;20034;-77
2023/07/14 00:24:12;;;;;;;4.35;1.42;;;21.70;99.90;;;;;;4974848;28;20061;-78
2023/07/14 00:26:40;;;;;;;7.03;1.75;;;21.80;99.90;;;;;;4973825;28;20125;-78
2023/07/14 00:29:31;;;;;;;2.70;1.27;;;21.80;99.90;;;;;;4973904;28;20499;-76
2023/07/14 00:31:57;;;;;;;5.93;1.92;;;21.90;99.90;;;;;;4972605;28;20030;-72
2023/07/14 00:34:23;;;;;;;3.85;1.48;;;21.90;99.90;;;;;;4973823;28;20353;-77
2023/07/14 00:36:49;;;;;;;5.63;1.60;;;21.90;99.90;;;;;;4972689;28;20027;-77
2023/07/14 00:39:15;;;;;;;8.80;1.48;;;22.00;99.90;;;;;;4973888;28;20036;-76
2023/07/14 00:41:42;;;;;;;1.90;1.65;;;21.90;99.90;;;;;;4956655;28;20395;-78
2023/07/14 00:44:13;;;;;;;6.38;2.22;;;21.90;99.90;;;;;;4972385;28;20045;-77
2023/07/14 00:46:40;;;;;;;3.83;1.45;;;21.90;99.90;;;;;;4973953;28;20039;-77
2023/07/14 00:49:21;;;;;;;9.52;2.00;;;21.90;99.90;;;;;;4956249;28;20122;-77
2023/07/14 00:51:48;;;;;;;5.78;1.55;;;21.90;99.90;;;;;;4956289;28;20046;-78
2023/07/14 00:54:43;;;;;;;3.53;1.40;;;21.90;99.90;;;;;;4973594;28;20106;-77
2023/07/14 00:57:16;;;;;;;2.53;1.30;;;21.80;99.90;;;;;;4973238;28;20061;-78
2023/07/14 00:59:42;;;;;;;4.10;1.70;;;21.90;99.90;;;;;;4955842;28;20041;-78
2023/07/14 01:02:10;;;;;;;5.10;1.50;;;21.90;99.90;;;;;;4972473;28;20114;-75
2023/07/14 01:04:39;;;;;;;3.83;1.40;;;21.60;99.90;;;;;;4973295;28;20022;-77
2023/07/14 01:07:05;;;;;;;2.40;1.20;;;21.60;99.90;;;;;;4973374;28;20046;-78
2023/07/14 01:09:32;;;;;;;2.50;1.30;;;21.50;99.90;;;;;;4956077;28;20039;-74
2023/07/14 01:12:00;;;;;;;5.43;1.40;;;21.50;99.90;;;;;;4973385;28;20058;-74
2023/07/14 01:14:30;;;;;;;4.10;1.30;;;21.40;99.90;;;;;;4970939;28;20027;-79
2023/07/14 01:16:57;;;;;;;4.72;1.63;;;21.40;99.90;;;;;;4971907;28;20026;-79
2023/07/14 01:19:26;;;;;;;5.82;1.65;;;21.30;99.90;;;;;;4955772;28;20479;-73
2023/07/14 01:22:00;;;;;;;2.95;1.75;;;21.30;99.90;;;;;;4955564;28;20069;-79
2023/07/14 01:24:34;;;;;;;2.88;1.45;;;21.30;99.90;;;;;;4973254;28;20035;-79
2023/07/14 01:27:07;;;;;;;3.17;1.45;;;21.10;99.90;;;;;;4971673;28;20045;-79
2023/07/14 01:29:33;;;;;;;4.15;1.38;;;21.00;99.90;;;;;;4955650;28;20054;-76
2023/07/14 01:32:00;;;;;;;3.05;1.60;;;21.10;99.90;;;;;;4956229;28;20027;-78
2023/07/14 01:34:28;;;;;;;4.30;1.65;;;21.10;99.90;;;;;;4952486;28;20050;-78
2023/07/14 01:36:58;;;;;;;4.45;1.55;;;21.10;99.90;;;;;;4951853;28;20081;-77
2023/07/14 01:39:28;;;;;;;2.80;1.60;;;21.00;99.90;;;;;;4971835;28;20079;-77
2023/07/14 01:41:54;;;;;;;3.17;1.67;;;21.10;99.90;;;;;;4955727;28;20093;-79
2023/07/14 01:44:21;;;;;;;1.85;1.00;;;21.00;99.90;;;;;;4972764;28;20106;-79
2023/07/14 01:46:48;;;;;;;1.77;1.17;;;21.10;99.90;;;;;;4971346;28;20051;-72
2023/07/14 01:49:26;;;;;;;4.35;1.80;;;21.10;99.90;;;;;;4971756;28;20070;-79
2023/07/14 01:51:56;;;;;;;3.50;1.83;;;21.20;99.90;;;;;;4971505;28;20086;-79
2023/07/14 01:54:43;;;;;;;2.63;1.50;;;21.20;99.90;;;;;;4973080;28;20029;-78
2023/07/14 01:57:12;;;;;;;7.28;2.28;;;21.20;99.90;;;;;;4955682;28;20049;-72
2023/07/14 01:59:44;;;;;;;2.28;1.40;;;21.20;99.90;;;;;;4971482;28;20102;-77
2023/07/14 02:02:44;;;;;;;3.45;1.60;;;21.20;99.90;;;;;;4971861;28;20038;-79
2023/07/14 02:05:35;;;;;;;2.63;1.20;;;21.10;99.90;;;;;;4954778;28;20047;-71
2023/07/14 02:08:10;;;;;;;2.58;1.52;;;21.10;99.90;;;;;;4970281;28;20046;-79
2023/07/14 02:10:36;;;;;;;5.63;1.80;;;21.00;99.90;;;;;;4970670;28;20400;-78
2023/07/14 02:13:05;;;;;;;2.50;1.13;;;21.00;99.90;;;;;;4954718;28;20126;-79
2023/07/14 02:15:33;;;;;;;4.70;1.48;;;20.90;99.90;;;;;;4954496;28;20035;-78
2023/07/14 02:18:00;;;;;;;6.18;1.35;;;20.80;99.90;;;;;;4971026;28;20484;-79
2023/07/14 02:20:38;;;;;;;3.38;1.30;;;20.80;99.90;;;;;;4954130;28;20554;-76
2023/07/14 02:23:20;;;;;;;5.45;1.38;;;20.80;99.90;;;;;;4970817;28;20039;-79
2023/07/14 02:25:53;;;;;;;6.90;1.75;;;20.80;99.90;;;;;;4971378;28;20142;-79
2023/07/14 02:28:19;;;;;;;3.13;1.58;;;20.80;99.90;;;;;;4974260;28;20049;-78
2023/07/14 02:30:54;;;;;;;2.92;1.70;;;20.80;99.90;;;;;;4957639;28;20035;-78
2023/07/14 02:33:25;;;;;;;3.78;1.40;;;20.80;99.90;;;;;;4974299;28;20026;-72
2023/07/14 02:36:02;;;;;;;2.28;1.30;;;20.70;99.90;;;;;;4969588;28;20122;-79
2023/07/14 02:38:28;;;;;;;3.97;1.60;;;20.70;99.90;;;;;;4957888;28;20061;-78
2023/07/14 02:41:20;;;;;;;4.65;1.67;;;20.80;99.90;;;;;;4967050;28;20050;-80
2023/07/14 02:43:54;;;;;;;5.72;1.70;;;20.80;99.90;;;;;;4986406;28;20029;-80
2023/07/14 02:46:33;;;;;;;4.18;1.50;;;20.80;99.90;;;;;;4968698;28;20074;-79
2023/07/14 02:48:59;;;;;;;4.00;1.65;;;20.80;99.90;;;;;;4958608;28;20034;-76
2023/07/14 02:51:24;;;;;;;6.30;2.03;;;20.70;99.90;;;;;;4977782;28;20023;-80
2023/07/14 02:53:50;;;;;;;6.03;1.45;;;20.60;99.90;;;;;;4956972;28;20030;-71
2023/07/14 02:56:17;;;;;;;4.90;1.67;;;20.40;99.90;;;;;;4983482;28;20058;-73
2023/07/14 02:58:48;;;;;;;4.40;2.05;;;20.40;99.90;;;;;;4989983;28;20516;-79
2023/07/14 03:01:14;;;;;;;3.50;1.75;;;20.40;99.90;;;;;;4989195;28;20035;-78
2023/07/14 03:03:44;;;;;;;2.63;1.63;;;20.30;99.90;;;;;;4976279;28;20019;-73
2023/07/14 03:06:13;;;;;;;5.55;1.60;;;20.30;99.90;;;;;;4981152;28;20034;-80
2023/07/14 03:08:39;;;;;;;5.15;1.92;;;20.30;99.90;;;;;;4955876;28;20074;-79
2023/07/14 03:11:05;;;;;;;4.65;1.65;;;20.30;99.90;;;;;;4987501;28;20026;-79
2023/07/14 03:13:31;;;;;;;3.50;2.25;;;20.40;99.90;;;;;;4972609;28;20141;-79
2023/07/14 03:15:57;;;;;;;5.03;1.83;;;20.30;99.90;;;;;;4956997;28;20070;-79
2023/07/14 03:18:24;;;;;;;5.32;2.88;;;20.30;99.90;;;;;;4981858;28;20063;-73
2023/07/14 03:21:01;;;;;;;11.70;2.65;;;20.40;99.90;;;;;;4980536;28;20040;-79
2023/07/14 03:23:26;;;;;;;3.40;1.90;;;20.40;99.90;;;;;;4966239;28;20044;-79
2023/07/14 03:26:05;;;;;;;3.20;1.83;;;20.50;99.90;;;;;;4973415;28;20034;-79
2023/07/14 03:28:32;;;;;;;5.57;2.15;;;20.40;99.90;;;;;;4974887;28;20050;-79
2023/07/14 03:30:59;;;;;;;8.45;2.33;;;20.40;99.90;;;;;;4971928;28;20030;-78
2023/07/14 03:33:24;;;;;;;4.68;1.77;;;20.40;99.90;;;;;;4974064;28;20357;-79
2023/07/14 03:35:50;;;;;;;3.72;2.10;;;20.60;99.90;;;;;;4973413;28;20082;-78
2023/07/14 03:38:16;;;;;;;7.00;2.53;;;20.60;99.90;;;;;;4973390;28;20061;-80
2023/07/14 03:40:43;;;;;;;6.10;2.55;;;20.60;99.90;;;;;;4972648;28;20465;-77
2023/07/14 03:43:10;;;;;;;6.68;2.00;;;20.50;99.90;;;;;;4973514;28;20063;-79
2023/07/14 03:45:36;;;;;;;5.63;2.10;;;20.60;99.90;;;;;;4973239;28;20039;-78
2023/07/14 03:48:03;;;;;;;5.68;2.10;;;20.70;99.90;;;;;;4973485;28;20356;-78
2023/07/14 03:50:29;;;;;;;4.63;1.98;;;20.70;99.90;;;;;;4973597;28;20023;-72
2023/07/14 03:52:55;;;;;;;5.47;2.63;;;21.20;99.90;;;;;;4973658;28;20022;-79
2023/07/14 03:55:21;;;;;;;5.05;2.15;;;21.90;99.90;;;;;;4974146;28;20065;-80
2023/07/14 03:57:47;;;;;;;6.03;2.05;;;22.60;99.90;;;;;;4973370;28;20046;-80
2023/07/14 04:00:17;;;;;;;15.68;2.28;;;22.90;99.90;;;;;;4973525;28;20106;-79
2023/07/14 04:02:47;;;;;;;4.95;2.15;;;23.80;99.90;;;;;;4975488;28;20026;-79
2023/07/14 04:05:14;;;;;;;5.38;1.63;;;24.20;99.90;;;;;;4975426;28;20085;-72
2023/07/14 04:07:42;;;;;;;6.65;1.83;;;24.70;99.90;;;;;;4972754;28;20512;-71
2023/07/14 04:10:09;;;;;;;2.03;1.70;;;24.90;99.90;;;;;;4973139;28;20082;-80
2023/07/14 04:12:35;;;;;;;3.47;1.58;;;25.00;99.90;;;;;;4973156;28;20025;-80
2023/07/14 04:15:02;;;;;;;3.75;2.25;;;25.40;99.90;;;;;;4971488;28;20023;-80
2023/07/14 04:17:29;;;;;;;8.75;1.85;;;25.90;99.90;;;;;;4988983;28;20023;-79
2023/07/14 04:19:55;;;;;;;6.50;1.90;;;26.40;99.90;;;;;;4972800;28;20619;-74
2023/07/14 04:22:21;;;;;;;2.88;1.83;;;25.80;99.90;;;;;;4980784;28;20081;-79
2023/07/14 04:24:47;;;;;;;8.88;2.53;;;26.10;99.90;;;;;;4972975;28;20109;-79
2023/07/14 04:27:13;;;;;;;3.55;1.65;;;26.60;99.90;;;;;;4973214;28;20484;-75
2023/07/14 04:29:40;;;;;;;3.08;1.65;;;26.70;99.90;;;;;;4973406;28;20396;-73
2023/07/14 04:32:06;;;;;;;4.80;1.92;;;27.00;99.90;;;;;;4976832;28;20080;-72
2023/07/14 04:34:33;;;;;;;6.13;1.85;;;26.80;99.90;;;;;;4988321;28;20033;-81
2023/07/14 04:36:59;;;;;;;4.32;2.13;;;26.90;99.90;;;;;;4972879;28;20027;-81
2023/07/14 04:39:25;;;;;;;8.25;2.33;;;27.40;99.90;;;;;;4973158;28;20078;-73
2023/07/14 04:41:54;;;;;;;4.55;1.63;;;27.80;99.90;;;;;;4972561;28;20420;-71
2023/07/14 04:44:20;;;;;;;9.48;2.35;;;26.90;99.90;;;;;;4983610;28;20551;-74
2023/07/14 04:46:46;;;;;;;3.15;1.20;;;26.50;99.90;;;;;;4990529;28;20037;-71
2023/07/14 04:49:13;;;;;;;5.38;1.65;;;25.80;99.90;;;;;;4990177;28;20030;-79
2023/07/14 04:51:39;;;;;;;9.60;1.95;;;25.60;99.90;;;;;;4987431;28;20081;-80
2023/07/14 04:54:05;;;;;;;6.05;1.60;;;25.30;99.90;;;;;;4972983;28;20039;-71
2023/07/14 04:56:34;;;;;;;4.07;1.67;;;25.50;99.90;;;;;;4972230;28;20019;-72
2023/07/14 04:59:00;;;;;;;3.78;1.83;;;26.00;99.90;;;;;;4955192;28;20877;-80
2023/07/14 05:01:27;;;;;;;4.07;1.55;;;25.60;99.90;;;;;;4990781;28;20023;-77
2023/07/14 05:03:54;;;;;;;5.70;1.88;;;25.70;99.90;;;;;;4990654;28;20030;-72
2023/07/14 05:06:20;;;;;;;5.28;2.55;;;25.30;99.90;;;;;;4981428;28;20031;-77
2023/07/14 05:08:46;;;;;;;4.55;3.03;;;24.80;99.90;;;;;;4971929;28;20102;-71
2023/07/14 05:11:11;;;;;;;5.68;3.25;;;24.30;99.90;;;;;;4972781;28;20034;-71
2023/07/14 05:13:37;;;;;;;8.80;3.38;;;24.00;99.90;;;;;;4972022;28;20026;-80
2023/07/14 05:16:03;;;;;;;5.68;3.13;;;23.80;99.90;;;;;;4972472;28;20022;-79
2023/07/14 05:18:29;;;;;;;8.07;3.70;;;23.40;99.90;;;;;;4972280;28;20038;-80
2023/07/14 05:21:05;;;;;;;9.40;4.28;;;23.30;99.90;;;;;;4970177;28;20074;-72
2023/07/14 05:23:31;;;;;;;10.30;4.80;;;23.00;99.90;;;;;;4971795;28;20031;-81
2023/07/14 05:25:58;;;;;;;6.70;3.72;;;22.90;99.90;;;;;;4971606;28;20075;-71
2023/07/14 05:28:24;;;;;;;5.85;3.38;;;23.00;99.90;;;;;;4971646;28;20033;-72
2023/07/14 05:30:51;;;;;;;4.25;2.90;;;22.90;99.90;;;;;;4966807;28;20427;-78
2023/07/14 05:33:17;;;;;;;5.78;3.67;;;23.10;99.90;;;;;;4967235;28;20023;-72
2023/07/14 05:35:44;;;;;;;7.30;3.25;;;23.50;99.90;;;;;;4969114;28;20408;-71
2023/07/14 05:38:10;;;;;;;5.57;2.90;;;23.30;99.90;;;;;;4966565;28;20023;-79
2023/07/14 05:40:35;;;;;;;5.18;2.33;;;23.50;99.90;;;;;;4953601;28;20045;-71
2023/07/14 05:43:01;;;;;;;8.60;2.40;;;23.40;99.90;;;;;;4953606;28;20074;-77
2023/07/14 05:45:27;;;;;;;5.47;2.50;;;23.50;99.90;;;;;;4953653;28;20050;-80
2023/07/14 05:47:53;;;;;;;4.35;2.50;;;23.70;99.90;;;;;;4953609;28;20106;-72
2023/07/14 05:50:19;;;;;;;6.38;2.50;;;23.90;99.90;;;;;;4953418;28;20062;-73
2023/07/14 05:52:46;;;;;;;5.93;2.75;;;24.20;99.90;;;;;;4953905;28;20062;-72
2023/07/14 05:55:12;;;;;;;7.82;2.38;;;24.20;99.90;;;;;;4952437;28;20094;-80
2023/07/14 05:57:38;;;;;;;3.58;2.58;;;24.00;99.90;;;;;;4953607;28;20035;-79
2023/07/14 06:00:16;;;;;;;7.97;2.63;;;24.00;99.90;;;;;;4954736;28;20480;-73
2023/07/14 06:02:43;;;;;;;5.38;2.22;;;24.20;99.90;;;;;;4956841;28;20090;-80
2023/07/14 06:05:10;;;;;;;3.53;2.38;;;24.40;99.90;;;;;;4956676;28;20106;-82
2023/07/14 06:07:37;;;;;;;4.43;2.35;;;24.50;99.90;;;;;;4972765;28;20109;-81
2023/07/14 06:10:03;;;;;;;3.22;1.85;;;24.90;99.90;;;;;;4996498;28;20036;-81
2023/07/14 06:12:29;;;;;;;5.50;1.67;;;24.80;99.90;;;;;;4985194;28;20044;-80
2023/07/14 06:14:55;;;;;;;5.10;2.38;;;24.80;99.90;;;;;;4981108;28;20027;-78
2023/07/14 06:17:21;;;;;;;9.20;3.30;;;24.80;99.90;;;;;;4977009;28;20049;-71
2023/07/14 06:19:47;;;;;;;5.63;2.35;;;25.00;99.90;;;;;;4976519;28;20065;-72
2023/07/14 06:22:13;;;;;;;7.38;2.38;;;25.00;99.90;;;;;;4986379;28;20046;-82
2023/07/14 06:24:40;;;;;;;4.57;2.05;;;25.00;99.90;;;;;;4990329;28;20023;-72
2023/07/14 06:27:06;;;;;;;5.75;2.60;;;24.90;99.90;;;;;;4976762;28;20035;-71
2023/07/14 06:29:33;;;;;;;4.57;2.30;;;25.00;99.90;;;;;;4981870;28;20038;-71
2023/07/14 06:31:59;;;;;;;3.33;2.00;;;24.90;99.90;;;;;;4993755;28;20077;-81
2023/07/14 06:34:25;;;;;;;9.25;2.42;;;25.00;99.90;;;;;;4995951;28;20068;-72
2023/07/14 06:36:51;;;;;;;4.63;2.33;;;24.70;99.90;;;;;;4995794;28;20034;-79
2023/07/14 06:39:18;;;;;;;7.30;2.83;;;24.60;99.90;;;;;;4980341;28;20031;-79
2023/07/14 06:41:44;;;;;;;3.85;2.53;;;24.70;99.90;;;;;;4978174;28;20423;-71
2023/07/14 06:44:11;;;;;;;4.90;2.53;;;24.30;99.90;;;;;;4987932;28;20022;-72
2023/07/14 06:46:37;;;;;;;5.40;3.22;;;24.10;99.90;;;;;;4995986;28;20044;-72
2023/07/14 06:49:03;;;;;;;4.63;2.92;;;24.60;99.90;;;;;;4995609;28;20097;-78
2023/07/14 06:51:29;;;;;;;5.25;3.40;;;24.30;99.90;;;;;;4995578;28;20050;-79
2023/07/14 06:53:55;;;;;;;4.28;2.92;;;24.20;99.90;;;;;;4979514;28;20106;-79
2023/07/14 06:56:21;;;;;;;5.22;2.88;;;24.60;99.90;;;;;;4995570;28;20058;-72
2023/07/14 06:58:47;;;;;;;6.10;3.30;;;24.70;99.90;;;;;;4984974;28;20060;-79
2023/07/14 07:01:14;;;;;;;5.85;3.85;;;24.60;99.90;;;;;;4995648;28;20034;-78
2023/07/14 07:03:40;;;;;;;5.80;3.13;;;24.80;99.90;;;;;;4994837;28;20026;-78
2023/07/14 07:06:06;;;;;;;4.75;3.08;;;25.10;99.90;;;;;;4995203;28;20058;-72
2023/07/14 07:08:32;;;;;;;4.47;3.20;;;25.30;99.90;;;;;;4994591;28;20451;-73
2023/07/14 07:10:59;;;;;;;4.20;3.10;;;25.40;99.90;;;;;;4994968;28;20126;-79
2023/07/14 07:13:25;;;;;;;6.00;3.00;;;25.20;99.90;;;;;;4985497;28;20042;-71
2023/07/14 07:15:51;;;;;;;5.68;3.30;;;25.30;99.90;;;;;;4995166;28;20070;-77
2023/07/14 07:18:19;;;;;;;7.63;3.35;;;25.20;99.90;;;;;;4994317;28;20018;-78
2023/07/14 07:20:45;;;;;;;4.40;2.95;;;25.50;99.90;;;;;;4987520;28;20031;-78
2023/07/14 07:23:11;;;;;;;3.53;2.72;;;25.40;99.90;;;;;;4994424;28;20357;-78
2023/07/14 07:25:37;;;;;;;8.13;3.10;;;25.50;99.90;;;;;;4994611;28;20042;-77
2023/07/14 07:28:04;;;;;;;4.97;3.20;;;25.50;99.90;;;;;;4994304;28;20018;-73
2023/07/14 07:30:33;;;;;;;4.28;2.78;;;25.70;99.90;;;;;;4994724;28;20395;-72
2023/07/14 07:32:59;;;;;;;4.15;3.08;;;25.90;99.90;;;;;;4987344;28;20042;-76
2023/07/14 07:35:26;;;;;;;4.40;3.10;;;25.90;99.90;;;;;;4987617;28;20109;-73
2023/07/14 07:37:52;;;;;;;5.43;3.45;;;25.80;99.90;;;;;;4977405;28;20031;-75
2023/07/14 07:40:18;;;;;;;3.15;2.40;;;26.00;99.90;;;;;;4988806;28;20076;-75
2023/07/14 07:42:44;;;;;;;3.97;2.65;;;26.10;99.90;;;;;;4994258;28;20030;-73
2023/07/14 07:45:10;;;;;;;4.78;3.05;;;26.20;99.90;;;;;;4982070;28;20030;-73
2023/07/14 07:47:36;;;;;;;6.30;3.08;;;26.30;99.90;;;;;;4974217;28;20049;-78
2023/07/14 07:50:03;;;;;;;8.68;3.13;;;26.20;99.90;;;;;;4990132;28;20030;-77
2023/07/14 07:52:31;;;;;;;5.25;2.88;;;26.40;99.90;;;;;;4994077;28;20061;-75
2023/07/14 07:54:57;;;;;;;7.20;3.78;;;26.30;99.90;;;;;;4989355;28;20105;-77
2023/07/14 07:57:23;;;;;;;5.20;3.10;;;26.20;99.90;;;;;;4976858;28;20424;-75
2023/07/14 07:59:49;;;;;;;7.32;3.35;;;26.30;99.90;;;;;;4974997;28;20062;-76
2023/07/14 08:02:15;;;;;;;7.47;3.33;;;26.60;99.90;;;;;;4974378;28;20030;-75
2023/07/14 08:04:40;;;;;;;5.45;3.30;;;26.90;99.90;;;;;;4974547;28;20041;-74
2023/07/14 08:07:13;;;;;;;4.18;2.65;;;26.80;99.90;;;;;;4974036;28;20074;-76
2023/07/14 08:09:39;;;;;;;3.63;2.60;;;26.90;99.90;;;;;;4974184;28;20499;-76
2023/07/14 08:12:05;;;;;;;9.82;3.65;;;27.00;99.90;;;;;;4974604;28;20035;-73
2023/07/14 08:14:32;;;;;;;2.92;2.33;;;27.20;99.90;;;;;;4974156;28;20086;-74
2023/07/14 08:16:58;;;;;;;5.72;3.22;;;27.50;99.90;;;;;;4974424;28;20029;-76
2023/07/14 08:19:23;;;;;;;5.82;3.00;;;27.70;99.90;;;;;;4974130;28;20026;-74
2023/07/14 08:21:49;;;;;;;5.90;3.65;;;27.90;99.90;;;;;;4974323;28;20062;-76
2023/07/14 08:24:15;;;;;;;8.25;3.25;;;27.80;99.90;;;;;;4973242;28;20027;-76
2023/07/14 08:26:41;;;;;;;4.53;2.65;;;27.80;99.90;;;;;;4974052;28;20035;-75
2023/07/14 08:29:08;;;;;;;4.95;2.80;;;27.40;99.50;;;;;;4973036;28;20077;-76
2023/07/14 08:31:34;;;;;;;6.05;3.17;;;27.70;98.60;;;;;;4973834;28;20090;-74
2023/07/14 08:34:00;;;;;;;5.65;3.03;;;28.00;98.60;;;;;;4974001;28;20432;-76
2023/07/14 08:36:26;;;;;;;3.67;2.80;;;27.90;99.20;;;;;;4973808;28;20023;-77
2023/07/14 08:38:54;;;;;;;5.38;2.60;;;28.20;98.90;;;;;;4974088;28;20035;-74
2023/07/14 08:41:28;;;;;;;5.20;2.58;;;28.40;97.60;;;;;;4974095;28;20065;-78
2023/07/14 08:44:26;;;;;;;4.60;2.95;;;28.00;97.30;;;;;;4974047;28;20030;-74
2023/07/14 08:47:05;;;;;;;5.35;2.92;;;28.20;97.00;;;;;;4932954;29;20051;-74
2023/07/14 08:49:41;;;;;;;6.07;2.75;;;27.90;97.40;;;;;;4933125;29;20513;-77
2023/07/14 08:52:21;;;;;;;5.38;2.65;;;28.00;96.30;;;;;;4943844;29;20043;-72
2023/07/14 08:54:54;;;;;;;3.88;2.47;;;28.00;96.60;;;;;;4933254;29;20455;-72
2023/07/14 08:57:23;;;;;;;4.68;3.30;;;28.20;97.00;;;;;;4933061;29;20043;-75
2023/07/14 08:59:52;;;;;;;7.40;2.95;;;28.30;97.90;;;;;;4933145;29;20030;-74
2023/07/14 09:02:25;;;;;;;4.13;2.55;;;28.40;97.00;;;;;;4933447;29;20091;-74
2023/07/14 09:05:16;;;;;;;3.97;2.60;;;28.40;95.90;;;;;;4932508;29;20035;-75
2023/07/14 09:07:43;;;;;;;3.47;2.50;;;28.10;96.40;;;;;;4923891;29;20067;-75
2023/07/14 09:10:12;;;;;;;3.17;2.60;;;28.60;94.80;;;;;;4914049;29;20417;-76
2023/07/14 09:13:13;;;;;;;4.65;2.20;;;28.60;94.70;;;;;;4913788;29;20044;-76
2023/07/14 09:15:40;;;;;;;7.68;2.97;;;28.40;93.50;;;;;;4894660;29;20041;-75
2023/07/14 09:18:40;;;;;;;3.75;2.60;;;28.50;93.00;;;;;;4895084;29;20564;-76
2023/07/14 09:21:16;;;;;;;4.15;2.13;;;28.40;93.20;;;;;;4857243;29;20094;-76
2023/07/14 09:24:00;;;;;;;7.28;2.80;;;28.40;93.60;;;;;;4870281;29;20137;-77
2023/07/14 09:26:30;;;;;;;5.95;2.42;;;28.50;94.30;;;;;;4876264;29;20132;-73
2023/07/14 09:28:58;;;;;;;3.42;2.05;;;28.30;93.10;;;;;;4875903;29;20037;-73
2023/07/14 09:31:37;;;;;;;4.25;2.20;;;28.30;93.50;;;;;;4885422;29;20168;-73
2023/07/14 09:34:14;;;;;;;5.05;2.13;;;28.40;92.50;;;;;;4877055;29;20154;-73
2023/07/14 09:36:41;;;;;;;9.40;2.72;;;28.40;91.80;;;;;;4875660;29;20037;-76
2023/07/14 09:39:17;;;;;;;3.53;2.72;;;28.60;94.20;;;;;;4876268;29;20041;-73
2023/07/14 09:41:42;;;;;;;3.25;2.30;;;28.80;94.10;;;;;;4876158;29;20036;-73
2023/07/14 09:44:10;;;;;;;7.13;2.75;;;28.70;93.30;;;;;;4876026;29;20044;-76
2023/07/14 09:46:46;;;;;;;3.03;2.22;;;28.70;93.90;;;;;;4876176;29;20189;-75
2023/07/14 09:49:22;;;;;;;3.22;2.22;;;28.60;93.60;;;;;;4875846;29;20044;-75
2023/07/14 09:52:12;;;;;;;4.43;2.10;;;28.40;93.70;;;;;;4881436;29;20398;-75
2023/07/14 09:54:48;;;;;;;4.07;2.65;;;28.60;93.90;;;;;;4882605;29;20048;-76
2023/07/14 09:57:14;;;;;;;5.85;2.30;;;28.60;94.20;;;;;;4882432;29;20048;-73
2023/07/14 10:00:00;;;;;;;3.65;2.40;;;28.60;94.70;;;;;;4913375;29;20044;-73
2023/07/14 10:02:31;;;;;;;4.93;2.60;;;28.50;93.10;;;;;;4913491;29;20032;-72
2023/07/14 10:05:03;;;;;;;;;;;28.70;95.20;;;;;;4913185;29;20048;-72
2023/07/14 10:07:35;;;;;;;3.58;2.45;;;;;;;;;;4919092;29;19918;-73
2023/07/14 10:10:07;;;;;;;;;;;29.10;94.10;;;;;;4932907;29;20115;-76
2023/07/14 10:12:47;;;;;;;7.25;2.72;;;29.30;93.50;;;;;;4932184;29;19950;-74
2023/07/14 10:15:35;;;;;;;4.25;2.55;;;29.00;93.90;;;;;;4932434;29;20410;-75
2023/07/14 10:18:12;;;;;;;4.38;2.75;;;28.90;94.30;;;;;;4919219;29;20495;-72
2023/07/14 10:20:39;;;;;;;4.07;2.30;;;29.00;93.80;;;;;;4932150;29;20617;-75
2023/07/14 10:23:16;;;;;;;3.88;2.65;;;29.10;93.30;;;;;;4932380;29;20023;-73
2023/07/14 10:25:49;;;;;;;6.18;2.80;;;29.20;94.80;;;;;;4931662;29;20048;-75
2023/07/14 10:28:19;;;;;;;7.13;2.72;;;;;;;;;;4931981;29;20040;-75
2023/07/14 10:31:42;;;;;;;4.30;2.30;;;29.40;93.60;;;;;;4937680;28;20058;-74
2023/07/14 10:34:20;;;;;;;4.70;2.75;;;29.80;94.00;;;;;;4932017;29;20107;-76
2023/07/14 10:36:46;;;;;;;2.95;2.28;;;29.90;95.00;;;;;;4932370;29;20039;-75
2023/07/14 10:39:26;;;;;;;4.97;2.90;;;29.90;94.20;;;;;;4932427;29;20406;-75
2023/07/14 10:41:52;;;;;;;3.70;2.70;;;29.70;94.30;;;;;;4932269;29;20122;-76
2023/07/14 10:44:34;;;;;;;4.80;2.90;;;29.60;94.40;;;;;;4932027;29;20103;-76
2023/07/14 10:47:09;;;;;;;5.65;2.80;;;29.70;94.90;;;;;;4936235;29;20039;-76
2023/07/14 10:49:42;;;;;;;4.20;2.70;;;29.60;93.90;;;;;;4943927;29;20038;-75
2023/07/14 10:52:28;;;;;;;7.43;2.65;;;29.70;95.80;;;;;;4934762;29;20130;-74
2023/07/14 10:54:57;;;;;;;3.88;2.30;;;29.80;95.80;;;;;;4935278;29;20487;-73
2023/07/14 10:57:29;;;;;;;4.10;2.60;;;29.60;95.80;;;;;;4935463;29;20042;-74
2023/07/14 11:00:00;;;;;;;4.88;2.63;;;29.60;94.90;;;;;;4935153;29;20059;-74
2023/07/14 11:02:36;;;;;;;2.75;2.15;;;29.90;94.60;;;;;;4935572;29;20042;-75
2023/07/14 11:05:16;;;;;;;4.93;2.33;;;30.10;96.10;;;;;;4957663;28;20031;-76
2023/07/14 11:07:42;;;;;;;5.78;2.60;;;30.30;93.90;;;;;;4975416;28;20500;-76
2023/07/14 11:10:33;;;;;;;5.68;2.90;;;30.30;95.20;;;;;;4975710;28;20086;-77
2023/07/14 11:13:28;;;;;;;8.82;2.97;;;30.40;95.70;;;;;;4915975;29;20110;-77
2023/07/14 11:16:03;;;;;;;2.78;2.35;;;29.90;95.60;;;;;;4915732;29;20047;-74
2023/07/14 11:19:12;;;;;;;5.25;2.95;;;29.30;95.60;;;;;;4915697;29;20461;-76
2023/07/14 11:21:46;;;;;;;4.03;2.63;;;29.00;96.00;;;;;;4913502;29;20055;-73
2023/07/14 11:24:30;;;;;;;7.13;2.60;;;29.10;96.40;;;;;;4915637;29;20048;-76
2023/07/14 11:27:09;;;;;;;5.53;2.70;;;29.20;95.10;;;;;;4915630;29;20063;-76
2023/07/14 11:30:04;;;;;;;3.30;2.40;;;29.30;95.40;;;;;;4915492;29;20054;-73
2023/07/14 11:32:51;;;;;;;6.18;2.80;;;29.10;94.50;;;;;;4915809;29;20095;-76
2023/07/14 11:35:44;;;;;;;4.22;2.60;;;28.80;95.70;;;;;;4914858;29;20115;-76
2023/07/14 11:38:19;;;;;;;4.30;2.50;;;28.90;95.40;;;;;;4915573;29;20048;-76
2023/07/14 11:40:46;;;;;;;3.97;2.65;;;29.20;95.20;;;;;;4914883;29;20029;-73
2023/07/14 11:43:21;;;;;;;4.85;2.50;;;29.70;95.00;;;;;;4915695;29;20096;-76
2023/07/14 11:45:58;;;;;;;3.33;2.28;;;29.90;92.50;;;;;;4914334;29;20044;-77
2023/07/14 11:48:52;;;;;;;4.55;2.78;;;30.10;93.60;;;;;;4915505;29;20031;-74
2023/07/14 11:51:20;;;;;;;3.80;2.45;;;30.00;94.10;;;;;;4973564;28;20090;-74
2023/07/14 11:54:06;;;;;;;2.58;2.03;;;29.60;94.10;;;;;;4974494;28;20105;-74
2023/07/14 11:56:39;;;;;;;4.63;2.58;;;29.10;93.80;;;;;;4974732;28;20035;-76
2023/07/14 11:59:17;;;;;;;5.50;2.72;;;29.00;95.50;;;;;;4974520;28;20118;-75
2023/07/14 12:01:47;;;;;;;3.53;2.67;;;28.70;94.00;;;;;;4974644;28;20023;-75
2023/07/14 12:04:28;;;;;;;3.72;2.30;;;29.00;93.90;;;;;;4974545;28;20392;-76
2023/07/14 12:07:19;;;;;;;3.93;2.37;;;29.20;94.30;;;;;;4974303;28;20039;-75
2023/07/14 12:10:14;;;;;;;3.63;2.65;;;29.40;93.80;;;;;;4974461;28;20038;-77
2023/07/14 12:13:00;;;;;;;3.60;2.53;;;29.50;95.00;;;;;;4974165;28;20030;-76
2023/07/14 12:16:07;;;;;;;5.25;2.45;;;29.60;94.00;;;;;;4973935;28;20041;-73
2023/07/14 12:18:53;;;;;;;11.82;2.72;;;29.80;93.80;;;;;;4968966;28;20102;-73
2023/07/14 12:21:30;;;;;;;6.38;2.80;;;29.70;93.60;;;;;;4974317;28;20031;-76
2023/07/14 12:24:09;;;;;;;4.95;2.63;;;29.80;93.70;;;;;;4974363;28;20081;-77
2023/07/14 12:26:35;;;;;;;4.13;2.53;;;29.80;93.40;;;;;;4973768;28;20042;-72
2023/07/14 12:29:10;;;;;;;4.35;2.28;;;29.50;92.80;;;;;;4973469;28;20031;-76
2023/07/14 12:31:36;;;;;;;3.75;2.40;;;29.40;93.90;;;;;;4978805;28;20027;-72
2023/07/14 12:34:03;;;;;;;5.88;2.72;;;29.20;93.40;;;;;;4976562;28;20041;-77
2023/07/14 12:36:29;;;;;;;5.30;3.38;;;29.00;93.60;;;;;;4973929;28;20027;-73
2023/07/14 12:38:56;;;;;;;4.80;2.33;;;29.00;93.60;;;;;;4973933;28;20026;-75
2023/07/14 12:41:24;;;;;;;4.53;2.63;;;29.00;93.50;;;;;;4973087;28;20033;-75
2023/07/14 12:43:55;;;;;;;5.30;2.63;;;29.30;93.30;;;;;;4972381;28;20259;-74
2023/07/14 12:46:35;;;;;;;11.75;2.63;;;29.40;93.00;;;;;;4972284;28;20458;-76
2023/07/14 12:49:12;;;;;;;8.02;2.92;;;29.40;93.50;;;;;;4972455;28;20412;-75
2023/07/14 12:51:38;;;;;;;4.72;2.83;;;29.70;93.90;;;;;;4967561;28;20027;-75
2023/07/14 12:54:12;;;;;;;4.18;2.47;;;29.60;93.00;;;;;;4972743;28;20427;-78
2023/07/14 12:56:38;;;;;;;4.85;2.80;;;29.70;92.90;;;;;;4962062;28;20404;-74
2023/07/14 12:59:12;;;;;;;4.60;2.38;;;29.60;93.20;;;;;;4973677;28;20038;-77
2023/07/14 13:01:41;;;;;;;2.97;2.28;;;29.70;94.20;;;;;;4973797;28;20468;-73
2023/07/14 13:04:10;;;;;;;4.82;2.53;;;29.60;94.20;;;;;;4973745;28;20033;-76
2023/07/14 13:06:36;;;;;;;4.80;2.10;;;29.70;94.70;;;;;;4973471;28;20039;-77
2023/07/14 13:09:11;;;;;;;4.40;2.35;;;29.70;94.70;;;;;;4973263;28;20065;-76